Symmes Township, Ohio
Current Conditions -  °F | °C
As of 4:53 AM on Sunday 21 Dec 2014 (Local Time) from KHAO Reporting Station
Haze Haze  
Wind Chill: 17°   Ceiling: Unl
Heat Index: 17°   Visibility: 6mi
Dew Point: 14°   Wind: 0mph
Humidity: 88%   Direction: NA
Pressure: 30.31"   Gusts: NA
Location:  39.2698°N, 84.3325°W
Report Text: KHAO 210953Z AUTO 00000KT 6SM BR CLR M08/M10 A3031 RMK AO2 SLP274 I1000 T10831100
Loading
Personal Weather Stations






























Interactive Weather Map New forecast layout! Learn more

10-Day Weather Forecast

Advertisements
Track Severe Weather on mobile